createdAt,value
2022-08-17T00:00:43.353Z,1.65
2022-08-17T00:03:37.522Z,1.25
2022-08-17T00:06:28.428Z,1.98
2022-08-17T00:09:18.803Z,1.88
2022-08-17T00:12:42.998Z,1.95
2022-08-17T00:15:13.528Z,1.67
2022-08-17T00:17:59.497Z,1.63
2022-08-17T00:20:45.866Z,1.90
2022-08-17T00:23:31.884Z,1.73
2022-08-17T00:26:43.631Z,1.88
2022-08-17T00:29:25.241Z,1.90
2022-08-17T00:33:11.652Z,2.30
2022-08-17T00:35:20.298Z,1.58
2022-08-17T00:38:09.772Z,1.95
2022-08-17T00:40:59.368Z,2.10
2022-08-17T00:43:46.765Z,1.75
2022-08-17T00:46:36.453Z,1.88
2022-08-17T00:49:25.179Z,1.33
2022-08-17T00:52:15.653Z,1.92
2022-08-17T00:55:02.622Z,1.55
2022-08-17T00:57:54.637Z,1.83
2022-08-17T01:00:44.286Z,2.35
2022-08-17T01:03:31.238Z,2.03
2022-08-17T01:06:17.255Z,1.88
2022-08-17T01:09:03.881Z,2.03
2022-08-17T01:11:52.230Z,1.77
2022-08-17T01:14:39.178Z,2.28
2022-08-17T01:17:27.355Z,1.80
2022-08-17T01:20:13.842Z,1.98
2022-08-17T01:23:00.391Z,1.95
2022-08-17T01:25:46.772Z,1.85
2022-08-17T01:28:53.677Z,1.75
2022-08-17T01:31:45.587Z,2.05
2022-08-17T01:34:42.775Z,2.08
2022-08-17T01:37:31.905Z,2.22
2022-08-17T01:40:35.839Z,2.17
2022-08-17T01:43:24.424Z,1.88
2022-08-17T01:46:14.727Z,2.28
2022-08-17T01:49:01.245Z,2.13
2022-08-17T01:51:47.001Z,1.85
2022-08-17T01:54:32.986Z,2.08
2022-08-17T01:57:19.129Z,1.73
2022-08-17T02:00:10.540Z,1.90
2022-08-17T02:02:57.160Z,1.50
2022-08-17T02:05:43.181Z,1.98
2022-08-17T02:08:36.984Z,2.13
2022-08-17T02:11:25.406Z,1.98
2022-08-17T02:14:11.468Z,1.88
2022-08-17T02:16:57.575Z,1.90
2022-08-17T02:20:02.250Z,2.25
2022-08-17T02:23:09.494Z,1.73
2022-08-17T02:25:57.871Z,1.90
2022-08-17T02:28:43.820Z,1.83
2022-08-17T02:31:31.235Z,1.42
2022-08-17T02:34:16.961Z,1.88
2022-08-17T02:37:03.147Z,1.80
2022-08-17T02:39:49.537Z,1.58
2022-08-17T02:42:38.297Z,2.30
2022-08-17T02:45:24.784Z,2.10
2022-08-17T02:48:11.031Z,2.13
2022-08-17T02:50:57.159Z,2.00
2022-08-17T02:53:43.254Z,1.80
2022-08-17T02:56:29.457Z,2.22
2022-08-17T02:59:15.524Z,1.85
2022-08-17T03:02:03.238Z,1.58
2022-08-17T03:04:49.509Z,1.77
2022-08-17T03:07:36.677Z,1.85
2022-08-17T03:10:24.737Z,2.60
2022-08-17T03:13:12.776Z,1.60
2022-08-17T03:15:58.948Z,1.60
2022-08-17T03:18:44.793Z,2.47
2022-08-17T03:21:30.921Z,2.25
2022-08-17T03:24:18.088Z,2.30
2022-08-17T03:27:04.486Z,1.88
2022-08-17T03:29:50.547Z,2.00
2022-08-17T03:32:44.346Z,1.95
2022-08-17T03:35:31.615Z,2.00
2022-08-17T03:38:18.308Z,2.85
2022-08-17T03:41:05.878Z,1.80
2022-08-17T03:43:51.991Z,1.63
2022-08-17T03:46:56.731Z,2.15
2022-08-17T03:50:01.071Z,2.08
2022-08-17T03:53:07.075Z,2.15
2022-08-17T03:56:11.507Z,2.17
2022-08-17T03:58:57.712Z,1.80
2022-08-17T04:01:55.382Z,1.70
2022-08-17T04:04:41.512Z,2.00
2022-08-17T04:07:28.988Z,2.25
2022-08-17T04:10:15.151Z,2.38
2022-08-17T04:13:01.481Z,2.20
2022-08-17T04:15:49.254Z,2.50
2022-08-17T04:18:35.358Z,2.25
2022-08-17T04:21:21.674Z,1.90
2022-08-17T04:24:09.355Z,1.88
2022-08-17T04:26:55.334Z,1.90
2022-08-17T04:29:54.439Z,2.10
2022-08-17T04:33:05.086Z,2.13
2022-08-17T04:35:58.501Z,1.48
2022-08-17T04:38:45.654Z,2.05
2022-08-17T04:41:50.568Z,2.13
2022-08-17T04:44:38.002Z,2.40
2022-08-17T04:47:24.329Z,2.92
2022-08-17T04:50:10.133Z,2.05
2022-08-17T04:52:56.516Z,2.20
2022-08-17T04:55:43.523Z,2.35
2022-08-17T04:58:29.661Z,2.10
2022-08-17T05:01:16.688Z,2.65
2022-08-17T05:04:33.006Z,2.33
2022-08-17T05:07:22.572Z,2.22
2022-08-17T05:10:09.694Z,1.92
2022-08-17T05:13:03.625Z,2.20
2022-08-17T05:15:52.922Z,2.20
2022-08-17T05:18:39.228Z,2.38
2022-08-17T05:21:26.382Z,1.92
2022-08-17T05:24:42.459Z,2.20
2022-08-17T05:27:19.133Z,2.38
2022-08-17T05:30:24.697Z,2.55
2022-08-17T05:33:14.940Z,2.20
2022-08-17T05:36:02.420Z,2.15
2022-08-17T05:38:48.313Z,2.03
2022-08-17T05:41:34.336Z,2.42
2022-08-17T05:44:20.417Z,2.80
2022-08-17T05:47:06.809Z,2.40
2022-08-17T05:50:26.059Z,2.58
2022-08-17T05:53:27.214Z,1.70
2022-08-17T05:56:30.221Z,2.78
2022-08-17T05:59:25.927Z,2.38
2022-08-17T06:02:24.663Z,2.00
2022-08-17T06:05:28.928Z,1.98
2022-08-17T06:08:22.054Z,2.55
2022-08-17T06:11:19.858Z,1.75
2022-08-17T06:14:25.092Z,2.20
2022-08-17T06:17:13.565Z,2.00
2022-08-17T06:20:01.892Z,2.00
2022-08-17T06:22:55.626Z,1.92
2022-08-17T06:25:46.978Z,2.13
2022-08-17T06:28:41.822Z,2.27
2022-08-17T06:31:31.335Z,1.90
2022-08-17T06:34:17.575Z,1.95
2022-08-17T06:37:31.251Z,2.10
2022-08-17T06:40:36.497Z,1.83
2022-08-17T06:43:22.697Z,1.83
2022-08-17T06:46:13.202Z,2.47
2022-08-17T06:48:59.163Z,1.63
2022-08-17T06:52:02.473Z,2.60
2022-08-17T06:54:48.539Z,1.75
2022-08-17T06:57:38.899Z,2.00
2022-08-17T07:00:27.936Z,2.35
2022-08-17T07:03:38.165Z,2.00
2022-08-17T07:06:29.570Z,2.35
2022-08-17T07:09:18.687Z,2.50
2022-08-17T07:12:10.273Z,2.30
2022-08-17T07:15:05.462Z,2.53
2022-08-17T07:17:51.496Z,2.58
2022-08-17T07:20:40.814Z,2.67
2022-08-17T07:23:34.521Z,2.40
2022-08-17T07:26:23.386Z,2.28
2022-08-17T07:29:10.432Z,2.42
2022-08-17T07:31:56.304Z,1.60
2022-08-17T07:35:00.595Z,2.20
2022-08-17T07:38:25.700Z,2.55
2022-08-17T07:41:12.753Z,2.55
2022-08-17T07:43:58.935Z,2.55
2022-08-17T07:47:16.307Z,2.55
2022-08-17T07:50:02.341Z,2.53
2022-08-17T07:52:52.146Z,3.00
2022-08-17T07:55:41.578Z,2.30
2022-08-17T07:58:27.790Z,2.20
2022-08-17T08:01:15.663Z,1.77
2022-08-17T08:07:48.095Z,2.72
2022-08-17T08:10:38.222Z,2.45
2022-08-17T08:13:30.375Z,2.17
2022-08-17T08:16:24.709Z,2.42
2022-08-17T08:19:12.927Z,1.73
2022-08-17T08:22:08.013Z,2.38
2022-08-17T08:25:18.240Z,1.67
2022-08-17T08:28:21.595Z,1.95
2022-08-17T08:31:16.773Z,1.90
2022-08-17T08:34:45.036Z,2.50
2022-08-17T08:37:43.742Z,2.35
2022-08-17T08:40:49.092Z,2.83
2022-08-17T08:43:54.879Z,2.50
2022-08-17T08:46:47.352Z,2.50
2022-08-17T08:50:07.205Z,2.25
2022-08-17T08:53:12.078Z,1.45
2022-08-17T08:56:27.453Z,2.20
2022-08-17T08:59:25.006Z,2.30
2022-08-17T09:02:39.068Z,2.33
2022-08-17T09:05:25.975Z,2.55
2022-08-17T09:08:18.233Z,2.17
2022-08-17T09:11:16.609Z,2.30
2022-08-17T09:14:21.760Z,2.00
2022-08-17T09:17:13.845Z,1.90
2022-08-17T09:20:28.198Z,1.60
2022-08-17T09:23:46.537Z,2.10
2022-08-17T09:26:48.590Z,1.98
2022-08-17T09:29:38.243Z,2.40
2022-08-17T09:32:24.167Z,1.85
2022-08-17T09:35:13.480Z,2.10
2022-08-17T09:38:11.791Z,2.20
2022-08-17T09:41:02.183Z,2.28
2022-08-17T09:43:58.775Z,2.67
2022-08-17T09:46:48.607Z,2.30
2022-08-17T09:49:43.328Z,2.20
2022-08-17T09:52:30.608Z,2.85
2022-08-17T09:55:16.797Z,2.00
2022-08-17T09:58:14.664Z,2.35
2022-08-17T10:01:06.806Z,2.15
2022-08-17T10:03:58.999Z,1.90
2022-08-17T10:07:11.485Z,2.13
2022-08-17T10:10:14.183Z,1.67
2022-08-17T10:13:24.454Z,2.00
2022-08-17T10:16:48.153Z,1.75
2022-08-17T10:20:00.404Z,1.52
2022-08-17T10:23:07.563Z,2.30
2022-08-17T10:26:15.418Z,1.90
2022-08-17T10:29:01.612Z,1.92
2022-08-17T10:31:53.734Z,1.98
2022-08-17T10:34:58.314Z,1.85
2022-08-17T10:37:48.353Z,1.92
2022-08-17T10:40:47.352Z,1.70
2022-08-17T10:43:57.920Z,1.77
2022-08-17T10:47:11.849Z,1.42
2022-08-17T10:50:18.319Z,1.10
2022-08-17T10:53:04.521Z,1.50
2022-08-17T10:56:09.264Z,2.40
2022-08-17T10:58:58.168Z,1.15
2022-08-17T11:01:53.708Z,1.77
2022-08-17T11:05:06.261Z,1.45
2022-08-17T11:08:11.912Z,1.10
2022-08-17T11:11:15.982Z,1.38
2022-08-17T11:14:15.049Z,1.83
2022-08-17T11:17:09.388Z,1.30
2022-08-17T11:20:14.992Z,1.65
2022-08-17T11:23:07.603Z,1.48
2022-08-17T11:25:55.720Z,1.98
2022-08-17T11:28:52.490Z,1.48
2022-08-17T11:31:41.318Z,1.20
2022-08-17T11:34:28.281Z,1.60
2022-08-17T11:37:20.317Z,2.25
2022-08-17T11:40:27.943Z,1.25
2022-08-17T11:43:29.325Z,1.42
2022-08-17T11:46:51.814Z,1.65
2022-08-17T11:50:02.875Z,1.63
2022-08-17T11:52:49.710Z,1.52
2022-08-17T11:55:39.608Z,1.40
2022-08-17T11:58:30.801Z,1.20
2022-08-17T12:01:22.763Z,1.35
2022-08-17T12:07:16.192Z,1.50
2022-08-17T12:10:17.255Z,1.27
2022-08-17T12:13:10.455Z,0.90
2022-08-17T12:15:57.526Z,1.52
2022-08-17T12:19:03.638Z,1.70
2022-08-17T12:21:55.119Z,1.55
2022-08-17T12:27:46.160Z,1.48
2022-08-17T12:30:38.608Z,1.70
2022-08-17T12:33:28.486Z,1.60
2022-08-17T12:36:15.884Z,1.80
2022-08-17T12:39:14.599Z,1.65
2022-08-17T12:42:21.166Z,1.30
2022-08-17T12:45:08.239Z,1.58
2022-08-17T12:48:02.812Z,1.48
2022-08-17T12:50:50.202Z,1.40
2022-08-17T12:53:36.351Z,1.20
2022-08-17T12:56:22.422Z,2.28
2022-08-17T12:59:10.867Z,1.23
2022-08-17T13:01:57.849Z,1.70
2022-08-17T13:04:44.292Z,1.58
2022-08-17T13:07:33.544Z,1.60
2022-08-17T13:10:24.281Z,1.63
2022-08-17T13:13:22.964Z,1.10
2022-08-17T13:16:11.923Z,1.15
2022-08-17T13:18:58.664Z,1.52
2022-08-17T13:21:46.156Z,2.10
2022-08-17T13:24:38.173Z,1.42
2022-08-17T13:27:25.928Z,1.27
2022-08-17T13:30:12.403Z,1.10
2022-08-17T13:32:59.551Z,1.50
2022-08-17T13:35:51.954Z,1.73
2022-08-17T13:38:47.971Z,1.75
2022-08-17T13:41:36.885Z,1.20
2022-08-17T13:44:30.460Z,1.40
2022-08-17T13:47:18.667Z,1.35
2022-08-17T13:50:05.266Z,1.08
2022-08-17T13:52:52.244Z,2.00
2022-08-17T13:55:38.737Z,1.52
2022-08-17T13:58:33.141Z,1.42
2022-08-17T14:01:28.643Z,1.70
2022-08-17T14:04:16.518Z,1.25
2022-08-17T14:07:12.936Z,1.33
2022-08-17T14:10:00.799Z,1.30
2022-08-17T14:12:46.984Z,1.50
2022-08-17T14:15:55.200Z,1.13
2022-08-17T14:18:56.006Z,1.45
2022-08-17T14:21:44.337Z,1.50
2022-08-17T14:24:31.847Z,1.30
2022-08-17T14:27:19.483Z,2.03
2022-08-17T14:30:07.881Z,1.42
2022-08-17T14:32:54.469Z,1.27
2022-08-17T14:35:40.921Z,1.88
2022-08-17T14:38:28.002Z,1.48
2022-08-17T14:41:20.058Z,1.60
2022-08-17T14:44:12.459Z,1.60
2022-08-17T14:46:58.353Z,1.30
2022-08-17T14:49:47.731Z,1.40
2022-08-17T14:52:34.004Z,2.17
2022-08-17T14:55:40.667Z,1.48
2022-08-17T14:58:26.634Z,2.40
2022-08-17T15:01:13.311Z,1.63
2022-08-17T15:04:00.956Z,1.17
2022-08-17T15:06:48.545Z,1.67
2022-08-17T15:09:35.792Z,1.77
2022-08-17T15:12:26.438Z,1.60
2022-08-17T15:15:18.294Z,1.40
2022-08-17T15:18:04.450Z,1.63
2022-08-17T15:20:50.831Z,1.55
2022-08-17T15:23:37.525Z,1.70
2022-08-17T15:26:26.313Z,2.08
2022-08-17T15:29:12.177Z,1.88
2022-08-17T15:32:00.867Z,1.48
2022-08-17T15:34:47.384Z,1.70
2022-08-17T15:37:33.908Z,1.75
2022-08-17T15:40:20.264Z,1.75
2022-08-17T15:43:11.580Z,1.27
2022-08-17T15:46:00.372Z,1.50
2022-08-17T15:48:52.462Z,1.58
2022-08-17T15:51:38.560Z,1.55
2022-08-17T15:54:24.770Z,2.03
2022-08-17T15:57:21.089Z,1.60
2022-08-17T16:00:11.817Z,1.92
2022-08-17T16:03:45.875Z,1.80
2022-08-17T16:06:10.013Z,1.77
2022-08-17T16:08:57.895Z,1.88
2022-08-17T16:11:46.147Z,1.75
2022-08-17T16:14:39.944Z,1.05
2022-08-17T16:17:38.668Z,1.67
2022-08-17T16:20:26.891Z,1.40
2022-08-17T16:23:18.450Z,1.80
2022-08-17T16:26:05.989Z,1.80
2022-08-17T16:28:52.459Z,1.60
2022-08-17T16:31:38.612Z,1.58
2022-08-17T16:34:24.560Z,1.60
2022-08-17T16:37:11.400Z,1.52
2022-08-17T16:39:57.761Z,1.63
2022-08-17T16:42:45.723Z,1.67
2022-08-17T16:45:36.785Z,1.42
2022-08-17T16:48:23.606Z,1.23
2022-08-17T16:51:09.491Z,1.30
2022-08-17T16:53:59.173Z,1.52
2022-08-17T16:56:49.979Z,1.50
2022-08-17T16:59:40.734Z,1.52
2022-08-17T17:02:30.560Z,2.13
2022-08-17T17:05:16.768Z,1.20
2022-08-17T17:08:08.990Z,1.30
2022-08-17T17:10:56.142Z,1.08
2022-08-17T17:13:58.542Z,1.80
2022-08-17T17:16:48.831Z,1.45
2022-08-17T17:19:37.730Z,1.67
2022-08-17T17:22:30.175Z,1.40
2022-08-17T17:25:19.251Z,1.33
2022-08-17T17:28:14.885Z,1.35
2022-08-17T17:31:05.047Z,1.80
2022-08-17T17:34:00.504Z,1.67
2022-08-17T17:36:50.235Z,1.85
2022-08-17T17:39:43.583Z,2.05
2022-08-17T17:42:34.273Z,2.65
2022-08-17T17:45:25.970Z,1.85
2022-08-17T17:48:12.083Z,1.77
2022-08-17T17:51:11.293Z,2.13
2022-08-17T17:53:58.959Z,2.70
2022-08-17T17:56:57.650Z,1.92
2022-08-17T18:00:03.695Z,2.13
2022-08-17T18:03:01.004Z,1.75
2022-08-17T18:05:47.122Z,2.25
2022-08-17T18:08:52.976Z,2.88
2022-08-17T18:11:59.142Z,2.85
2022-08-17T18:15:03.535Z,2.55
2022-08-17T18:18:22.880Z,2.45
2022-08-17T18:21:20.346Z,2.47
2022-08-17T18:24:07.737Z,1.90
2022-08-17T18:26:55.417Z,3.25
2022-08-17T18:29:44.541Z,2.05
2022-08-17T18:32:35.249Z,2.28
2022-08-17T18:35:27.518Z,2.35
2022-08-17T18:38:25.664Z,2.97
2022-08-17T18:41:23.697Z,2.33
2022-08-17T18:44:31.172Z,3.15
2022-08-17T18:47:22.053Z,2.70
2022-08-17T18:50:20.832Z,3.00
2022-08-17T18:53:21.082Z,2.05
2022-08-17T18:56:17.863Z,2.90
2022-08-17T18:59:24.243Z,3.28
2022-08-17T19:02:27.337Z,2.72
2022-08-17T19:05:23.831Z,1.90
2022-08-17T19:08:28.551Z,2.60
2022-08-17T19:11:14.848Z,2.70
2022-08-17T19:14:03.372Z,2.83
2022-08-17T19:16:55.749Z,2.50
2022-08-17T19:19:54.112Z,2.67
2022-08-17T19:22:43.949Z,2.40
2022-08-17T19:25:33.504Z,4.65
2022-08-17T19:28:23.035Z,3.17
2022-08-17T19:31:18.983Z,3.10
2022-08-17T19:34:05.382Z,2.78
2022-08-17T19:37:10.673Z,2.22
2022-08-17T19:40:35.131Z,2.10
2022-08-17T19:43:41.750Z,3.33
2022-08-17T19:46:35.729Z,2.97
2022-08-17T19:49:40.259Z,2.70
2022-08-17T19:52:57.205Z,2.50
2022-08-17T19:56:02.635Z,2.13
2022-08-17T19:58:54.726Z,3.22
2022-08-17T20:02:01.217Z,1.95
2022-08-17T20:05:11.494Z,2.90
2022-08-17T20:08:02.432Z,2.50
2022-08-17T20:11:02.567Z,2.78
2022-08-17T20:14:10.201Z,2.47
2022-08-17T20:17:00.503Z,2.72
2022-08-17T20:19:53.338Z,2.40
2022-08-17T20:25:53.593Z,2.17
2022-08-17T20:28:59.397Z,1.75
2022-08-17T20:31:49.055Z,2.35
2022-08-17T20:34:39.841Z,2.20
2022-08-17T20:37:30.820Z,2.72
2022-08-17T20:40:22.092Z,2.60
2022-08-17T20:43:31.810Z,2.50
2022-08-17T20:46:23.958Z,2.50
2022-08-17T20:52:09.877Z,2.53
2022-08-17T20:54:59.565Z,2.65
2022-08-17T20:57:47.462Z,2.30
2022-08-17T21:00:40.824Z,2.10
2022-08-17T21:03:51.821Z,2.72
2022-08-17T21:07:00.511Z,2.85
2022-08-17T21:09:46.656Z,2.53
2022-08-17T21:12:51.582Z,2.33
2022-08-17T21:15:48.686Z,3.03
2022-08-17T21:18:38.742Z,2.80
2022-08-17T21:21:30.373Z,2.60
2022-08-17T21:24:20.103Z,2.88
2022-08-17T21:27:22.471Z,2.47
2022-08-17T21:30:42.600Z,2.40
2022-08-17T21:33:33.058Z,2.75
2022-08-17T21:36:24.954Z,2.25
2022-08-17T21:41:57.344Z,2.67
2022-08-17T21:44:49.436Z,2.30
2022-08-17T21:47:35.615Z,2.20
2022-08-17T21:50:23.832Z,2.30
2022-08-17T21:53:14.946Z,2.78
2022-08-17T21:56:01.038Z,2.45
2022-08-17T21:58:54.533Z,2.75
2022-08-17T22:01:41.171Z,2.60
2022-08-17T22:04:29.250Z,2.85
2022-08-17T22:07:15.293Z,2.65
2022-08-17T22:10:01.610Z,2.60
2022-08-17T22:13:01.416Z,2.90
2022-08-17T22:16:15.514Z,3.10
2022-08-17T22:19:11.845Z,2.85
2022-08-17T22:22:08.208Z,2.60
2022-08-17T22:25:06.489Z,3.15
2022-08-17T22:27:57.173Z,3.10
2022-08-17T22:30:59.554Z,2.40
2022-08-17T22:33:47.197Z,2.83
2022-08-17T22:36:36.844Z,2.47
2022-08-17T22:39:26.417Z,2.88
2022-08-17T22:42:14.227Z,2.78
2022-08-17T22:45:05.116Z,2.70
2022-08-17T22:47:54.466Z,2.85
2022-08-17T22:50:40.254Z,2.90
2022-08-17T22:53:44.782Z,3.17
2022-08-17T22:56:50.795Z,2.60
2022-08-17T22:59:43.815Z,2.75
2022-08-17T23:02:33.252Z,2.50
2022-08-17T23:05:21.230Z,2.70
2022-08-17T23:08:08.338Z,3.30
2022-08-17T23:11:05.075Z,3.08
2022-08-17T23:13:51.362Z,3.03
2022-08-17T23:16:37.163Z,2.63
2022-08-17T23:19:23.455Z,3.08
2022-08-17T23:22:10.446Z,2.72
2022-08-17T23:24:58.492Z,3.10
2022-08-17T23:27:45.336Z,2.70
2022-08-17T23:30:32.713Z,2.70
2022-08-17T23:33:21.486Z,2.80
2022-08-17T23:36:10.541Z,3.35
2022-08-17T23:38:56.838Z,2.40
2022-08-17T23:41:43.260Z,2.72
2022-08-17T23:44:30.222Z,2.78
2022-08-17T23:47:16.337Z,3.03
2022-08-17T23:50:05.580Z,2.70
2022-08-17T23:52:53.646Z,3.13
2022-08-17T23:55:39.645Z,3.38
2022-08-17T23:58:25.856Z,3.53
